sensor_id;sensor_type;location;lat;lon;timestamp;P1;durP1;ratioP1;P2;durP2;ratioP2
16450;SDS011;12243;42.708;23.310;2023-01-26T00:02:21;5.63;;;4.93;;
16450;SDS011;12243;42.708;23.310;2023-01-26T00:04:48;6.60;;;5.70;;
16450;SDS011;12243;42.708;23.310;2023-01-26T00:07:15;7.33;;;5.83;;
16450;SDS011;12243;42.708;23.310;2023-01-26T00:09:42;9.53;;;6.03;;
16450;SDS011;12243;42.708;23.310;2023-01-26T00:12:09;5.83;;;5.33;;
16450;SDS011;12243;42.708;23.310;2023-01-26T00:14:36;7.77;;;5.07;;
16450;SDS011;12243;42.708;23.310;2023-01-26T00:17:15;7.73;;;4.80;;
16450;SDS011;12243;42.708;23.310;2023-01-26T00:19:55;8.10;;;5.50;;
16450;SDS011;12243;42.708;23.310;2023-01-26T00:22:23;7.13;;;5.60;;
16450;SDS011;12243;42.708;23.310;2023-01-26T00:24:54;8.57;;;6.23;;
16450;SDS011;12243;42.708;23.310;2023-01-26T00:27:21;8.20;;;6.23;;
16450;SDS011;12243;42.708;23.310;2023-01-26T00:29:48;7.80;;;5.70;;
16450;SDS011;12243;42.708;23.310;2023-01-26T00:32:15;8.30;;;5.23;;
16450;SDS011;12243;42.708;23.310;2023-01-26T00:34:42;7.23;;;5.17;;
16450;SDS011;12243;42.708;23.310;2023-01-26T00:37:11;8.87;;;5.93;;
16450;SDS011;12243;42.708;23.310;2023-01-26T00:39:38;7.43;;;5.17;;
16450;SDS011;12243;42.708;23.310;2023-01-26T00:42:05;8.50;;;6.40;;
16450;SDS011;12243;42.708;23.310;2023-01-26T00:44:31;7.23;;;5.37;;
16450;SDS011;12243;42.708;23.310;2023-01-26T00:46:58;8.37;;;6.20;;
16450;SDS011;12243;42.708;23.310;2023-01-26T00:49:26;7.07;;;5.20;;
16450;SDS011;12243;42.708;23.310;2023-01-26T00:51:53;5.80;;;5.07;;
16450;SDS011;12243;42.708;23.310;2023-01-26T00:54:21;10.23;;;6.00;;
16450;SDS011;12243;42.708;23.310;2023-01-26T00:56:48;8.83;;;6.10;;
16450;SDS011;12243;42.708;23.310;2023-01-26T00:59:15;7.23;;;5.00;;
16450;SDS011;12243;42.708;23.310;2023-01-26T01:01:44;11.23;;;6.10;;
16450;SDS011;12243;42.708;23.310;2023-01-26T01:04:12;9.03;;;6.23;;
16450;SDS011;12243;42.708;23.310;2023-01-26T01:06:39;7.07;;;5.33;;
16450;SDS011;12243;42.708;23.310;2023-01-26T01:09:06;8.37;;;5.90;;
16450;SDS011;12243;42.708;23.310;2023-01-26T01:11:35;6.97;;;5.63;;
16450;SDS011;12243;42.708;23.310;2023-01-26T01:14:02;11.00;;;6.37;;
16450;SDS011;12243;42.708;23.310;2023-01-26T01:16:29;10.17;;;5.70;;
16450;SDS011;12243;42.708;23.310;2023-01-26T01:18:56;6.87;;;5.07;;
16450;SDS011;12243;42.708;23.310;2023-01-26T01:21:23;5.90;;;5.30;;
16450;SDS011;12243;42.708;23.310;2023-01-26T01:23:52;7.60;;;5.20;;
16450;SDS011;12243;42.708;23.310;2023-01-26T01:26:19;8.63;;;6.10;;
16450;SDS011;12243;42.708;23.310;2023-01-26T01:28:47;7.47;;;4.83;;
16450;SDS011;12243;42.708;23.310;2023-01-26T01:31:15;6.30;;;4.90;;
16450;SDS011;12243;42.708;23.310;2023-01-26T01:33:42;6.57;;;5.27;;
16450;SDS011;12243;42.708;23.310;2023-01-26T01:36:10;6.10;;;5.20;;
16450;SDS011;12243;42.708;23.310;2023-01-26T01:38:38;7.17;;;5.60;;
16450;SDS011;12243;42.708;23.310;2023-01-26T01:41:06;7.10;;;5.27;;
16450;SDS011;12243;42.708;23.310;2023-01-26T01:43:34;5.87;;;4.83;;
16450;SDS011;12243;42.708;23.310;2023-01-26T01:46:03;6.00;;;5.17;;
16450;SDS011;12243;42.708;23.310;2023-01-26T01:48:34;4.60;;;4.13;;
16450;SDS011;12243;42.708;23.310;2023-01-26T01:51:16;5.87;;;4.80;;
16450;SDS011;12243;42.708;23.310;2023-01-26T01:53:47;6.47;;;4.87;;
16450;SDS011;12243;42.708;23.310;2023-01-26T01:56:17;4.83;;;4.33;;
16450;SDS011;12243;42.708;23.310;2023-01-26T01:58:47;7.27;;;5.10;;
16450;SDS011;12243;42.708;23.310;2023-01-26T02:01:19;5.37;;;4.87;;
16450;SDS011;12243;42.708;23.310;2023-01-26T02:03:46;5.43;;;4.83;;
16450;SDS011;12243;42.708;23.310;2023-01-26T02:06:17;6.60;;;5.20;;
16450;SDS011;12243;42.708;23.310;2023-01-26T02:08:47;8.23;;;4.93;;
16450;SDS011;12243;42.708;23.310;2023-01-26T02:11:17;7.23;;;4.90;;
16450;SDS011;12243;42.708;23.310;2023-01-26T02:13:47;7.27;;;5.17;;
16450;SDS011;12243;42.708;23.310;2023-01-26T02:16:16;5.47;;;4.27;;
16450;SDS011;12243;42.708;23.310;2023-01-26T02:18:44;5.33;;;4.33;;
16450;SDS011;12243;42.708;23.310;2023-01-26T02:21:12;5.97;;;4.53;;
16450;SDS011;12243;42.708;23.310;2023-01-26T02:24:00;4.83;;;4.17;;
16450;SDS011;12243;42.708;23.310;2023-01-26T02:26:35;4.40;;;3.83;;
16450;SDS011;12243;42.708;23.310;2023-01-26T02:29:03;4.50;;;4.10;;
16450;SDS011;12243;42.708;23.310;2023-01-26T02:31:42;6.20;;;4.73;;
16450;SDS011;12243;42.708;23.310;2023-01-26T02:34:12;5.50;;;4.90;;
16450;SDS011;12243;42.708;23.310;2023-01-26T02:36:41;4.97;;;4.30;;
16450;SDS011;12243;42.708;23.310;2023-01-26T02:39:15;5.53;;;4.90;;
16450;SDS011;12243;42.708;23.310;2023-01-26T02:41:49;5.97;;;4.83;;
16450;SDS011;12243;42.708;23.310;2023-01-26T02:44:35;6.87;;;4.93;;
16450;SDS011;12243;42.708;23.310;2023-01-26T02:47:09;5.73;;;5.23;;
16450;SDS011;12243;42.708;23.310;2023-01-26T02:49:38;5.53;;;4.90;;
16450;SDS011;12243;42.708;23.310;2023-01-26T02:52:17;5.70;;;4.73;;
16450;SDS011;12243;42.708;23.310;2023-01-26T02:54:52;6.30;;;3.93;;
16450;SDS011;12243;42.708;23.310;2023-01-26T02:57:38;6.03;;;4.93;;
16450;SDS011;12243;42.708;23.310;2023-01-26T03:00:07;5.93;;;4.77;;
16450;SDS011;12243;42.708;23.310;2023-01-26T03:02:37;4.87;;;4.40;;
16450;SDS011;12243;42.708;23.310;2023-01-26T03:05:05;5.90;;;5.00;;
16450;SDS011;12243;42.708;23.310;2023-01-26T03:07:32;5.57;;;4.87;;
16450;SDS011;12243;42.708;23.310;2023-01-26T03:09:59;6.67;;;4.90;;
16450;SDS011;12243;42.708;23.310;2023-01-26T03:12:27;8.30;;;5.83;;
16450;SDS011;12243;42.708;23.310;2023-01-26T03:14:56;9.53;;;4.67;;
16450;SDS011;12243;42.708;23.310;2023-01-26T03:17:37;7.30;;;4.97;;
16450;SDS011;12243;42.708;23.310;2023-01-26T03:20:05;7.30;;;5.07;;
16450;SDS011;12243;42.708;23.310;2023-01-26T03:22:50;5.77;;;4.10;;
16450;SDS011;12243;42.708;23.310;2023-01-26T03:25:36;5.33;;;3.87;;
16450;SDS011;12243;42.708;23.310;2023-01-26T03:28:21;4.60;;;4.20;;
16450;SDS011;12243;42.708;23.310;2023-01-26T03:30:50;5.83;;;4.93;;
16450;SDS011;12243;42.708;23.310;2023-01-26T03:33:19;6.57;;;5.07;;
16450;SDS011;12243;42.708;23.310;2023-01-26T03:35:47;4.83;;;3.80;;
16450;SDS011;12243;42.708;23.310;2023-01-26T03:38:17;6.20;;;4.43;;
16450;SDS011;12243;42.708;23.310;2023-01-26T03:40:47;6.00;;;4.57;;
16450;SDS011;12243;42.708;23.310;2023-01-26T03:43:32;5.27;;;4.10;;
16450;SDS011;12243;42.708;23.310;2023-01-26T03:46:18;5.83;;;4.37;;
16450;SDS011;12243;42.708;23.310;2023-01-26T03:49:04;5.33;;;4.80;;
16450;SDS011;12243;42.708;23.310;2023-01-26T03:51:53;4.17;;;3.60;;
16450;SDS011;12243;42.708;23.310;2023-01-26T03:54:37;7.83;;;4.30;;
16450;SDS011;12243;42.708;23.310;2023-01-26T03:57:21;9.07;;;6.10;;
16450;SDS011;12243;42.708;23.310;2023-01-26T03:59:48;7.73;;;5.53;;
16450;SDS011;12243;42.708;23.310;2023-01-26T04:02:21;8.43;;;5.23;;
16450;SDS011;12243;42.708;23.310;2023-01-26T04:05:07;4.97;;;4.30;;
16450;SDS011;12243;42.708;23.310;2023-01-26T04:08:00;5.93;;;4.30;;
16450;SDS011;12243;42.708;23.310;2023-01-26T04:10:45;4.70;;;3.97;;
16450;SDS011;12243;42.708;23.310;2023-01-26T04:13:12;4.40;;;3.97;;
16450;SDS011;12243;42.708;23.310;2023-01-26T04:16:01;4.40;;;4.00;;
16450;SDS011;12243;42.708;23.310;2023-01-26T04:18:47;4.90;;;4.23;;
16450;SDS011;12243;42.708;23.310;2023-01-26T04:21:31;5.30;;;4.40;;
16450;SDS011;12243;42.708;23.310;2023-01-26T04:24:02;4.93;;;4.53;;
16450;SDS011;12243;42.708;23.310;2023-01-26T04:26:34;6.37;;;5.30;;
16450;SDS011;12243;42.708;23.310;2023-01-26T04:29:06;5.03;;;4.20;;
16450;SDS011;12243;42.708;23.310;2023-01-26T04:31:35;4.37;;;3.97;;
16450;SDS011;12243;42.708;23.310;2023-01-26T04:34:04;5.80;;;4.23;;
16450;SDS011;12243;42.708;23.310;2023-01-26T04:36:33;4.77;;;4.20;;
16450;SDS011;12243;42.708;23.310;2023-01-26T04:39:00;5.70;;;4.47;;
16450;SDS011;12243;42.708;23.310;2023-01-26T04:41:27;5.10;;;4.60;;
16450;SDS011;12243;42.708;23.310;2023-01-26T04:44:03;5.37;;;4.33;;
16450;SDS011;12243;42.708;23.310;2023-01-26T04:46:30;7.40;;;4.67;;
16450;SDS011;12243;42.708;23.310;2023-01-26T04:48:59;5.17;;;4.60;;
16450;SDS011;12243;42.708;23.310;2023-01-26T04:51:28;6.03;;;5.07;;
16450;SDS011;12243;42.708;23.310;2023-01-26T04:53:55;5.27;;;4.77;;
16450;SDS011;12243;42.708;23.310;2023-01-26T04:56:24;4.87;;;4.30;;
16450;SDS011;12243;42.708;23.310;2023-01-26T04:58:53;4.67;;;4.23;;
16450;SDS011;12243;42.708;23.310;2023-01-26T05:01:22;7.70;;;5.63;;
16450;SDS011;12243;42.708;23.310;2023-01-26T05:03:49;5.07;;;4.57;;
16450;SDS011;12243;42.708;23.310;2023-01-26T05:06:16;5.60;;;4.73;;
16450;SDS011;12243;42.708;23.310;2023-01-26T05:08:47;7.73;;;4.67;;
16450;SDS011;12243;42.708;23.310;2023-01-26T05:11:14;4.20;;;3.87;;
16450;SDS011;12243;42.708;23.310;2023-01-26T05:14:13;5.20;;;4.10;;
16450;SDS011;12243;42.708;23.310;2023-01-26T05:17:00;7.50;;;4.63;;
16450;SDS011;12243;42.708;23.310;2023-01-26T05:19:53;5.00;;;4.57;;
16450;SDS011;12243;42.708;23.310;2023-01-26T05:22:45;6.20;;;5.30;;
16450;SDS011;12243;42.708;23.310;2023-01-26T05:25:28;5.13;;;4.60;;
16450;SDS011;12243;42.708;23.310;2023-01-26T05:28:01;5.23;;;4.73;;
16450;SDS011;12243;42.708;23.310;2023-01-26T05:30:28;6.77;;;6.07;;
16450;SDS011;12243;42.708;23.310;2023-01-26T05:32:59;5.30;;;4.80;;
16450;SDS011;12243;42.708;23.310;2023-01-26T05:35:32;4.70;;;4.30;;
16450;SDS011;12243;42.708;23.310;2023-01-26T05:37:59;6.40;;;4.93;;
16450;SDS011;12243;42.708;23.310;2023-01-26T05:40:30;4.80;;;4.27;;
16450;SDS011;12243;42.708;23.310;2023-01-26T05:42:57;5.20;;;4.70;;
16450;SDS011;12243;42.708;23.310;2023-01-26T05:45:43;5.73;;;4.43;;
16450;SDS011;12243;42.708;23.310;2023-01-26T05:48:11;6.53;;;5.40;;
16450;SDS011;12243;42.708;23.310;2023-01-26T05:50:38;7.23;;;5.57;;
16450;SDS011;12243;42.708;23.310;2023-01-26T05:53:11;13.73;;;7.93;;
16450;SDS011;12243;42.708;23.310;2023-01-26T05:55:41;11.77;;;7.27;;
16450;SDS011;12243;42.708;23.310;2023-01-26T05:58:09;10.53;;;5.97;;
16450;SDS011;12243;42.708;23.310;2023-01-26T06:00:37;8.03;;;6.90;;
16450;SDS011;12243;42.708;23.310;2023-01-26T06:03:09;9.00;;;6.73;;
16450;SDS011;12243;42.708;23.310;2023-01-26T06:05:36;8.10;;;5.43;;
16450;SDS011;12243;42.708;23.310;2023-01-26T06:08:12;9.03;;;7.23;;
16450;SDS011;12243;42.708;23.310;2023-01-26T06:11:07;9.43;;;5.80;;
16450;SDS011;12243;42.708;23.310;2023-01-26T06:13:57;7.87;;;5.83;;
16450;SDS011;12243;42.708;23.310;2023-01-26T06:16:25;12.50;;;7.47;;
16450;SDS011;12243;42.708;23.310;2023-01-26T06:18:53;9.00;;;6.57;;
16450;SDS011;12243;42.708;23.310;2023-01-26T06:21:20;10.33;;;7.07;;
16450;SDS011;12243;42.708;23.310;2023-01-26T06:23:48;9.37;;;6.93;;
16450;SDS011;12243;42.708;23.310;2023-01-26T06:26:16;7.60;;;6.40;;
16450;SDS011;12243;42.708;23.310;2023-01-26T06:28:44;12.10;;;6.87;;
16450;SDS011;12243;42.708;23.310;2023-01-26T06:31:12;11.50;;;7.83;;
16450;SDS011;12243;42.708;23.310;2023-01-26T06:33:40;11.47;;;7.67;;
16450;SDS011;12243;42.708;23.310;2023-01-26T06:36:08;15.20;;;9.23;;
16450;SDS011;12243;42.708;23.310;2023-01-26T06:38:36;13.57;;;10.33;;
16450;SDS011;12243;42.708;23.310;2023-01-26T06:41:04;18.63;;;10.13;;
16450;SDS011;12243;42.708;23.310;2023-01-26T06:43:34;24.50;;;12.80;;
16450;SDS011;12243;42.708;23.310;2023-01-26T06:46:02;25.53;;;13.60;;
16450;SDS011;12243;42.708;23.310;2023-01-26T06:48:33;12.57;;;8.77;;
16450;SDS011;12243;42.708;23.310;2023-01-26T06:51:04;39.87;;;22.53;;
16450;SDS011;12243;42.708;23.310;2023-01-26T06:53:55;17.27;;;11.73;;
16450;SDS011;12243;42.708;23.310;2023-01-26T06:56:36;13.30;;;7.83;;
16450;SDS011;12243;42.708;23.310;2023-01-26T06:59:28;9.87;;;7.10;;
16450;SDS011;12243;42.708;23.310;2023-01-26T07:02:28;11.03;;;7.73;;
16450;SDS011;12243;42.708;23.310;2023-01-26T07:04:55;12.47;;;8.43;;
16450;SDS011;12243;42.708;23.310;2023-01-26T07:07:21;10.23;;;7.03;;
16450;SDS011;12243;42.708;23.310;2023-01-26T07:09:48;13.13;;;8.33;;
16450;SDS011;12243;42.708;23.310;2023-01-26T07:12:15;11.70;;;7.50;;
16450;SDS011;12243;42.708;23.310;2023-01-26T07:14:43;17.00;;;10.17;;
16450;SDS011;12243;42.708;23.310;2023-01-26T07:17:11;17.67;;;10.40;;
16450;SDS011;12243;42.708;23.310;2023-01-26T07:19:37;17.13;;;10.77;;
16450;SDS011;12243;42.708;23.310;2023-01-26T07:22:04;27.13;;;13.50;;
16450;SDS011;12243;42.708;23.310;2023-01-26T07:24:31;29.53;;;13.33;;
16450;SDS011;12243;42.708;23.310;2023-01-26T07:26:58;27.27;;;13.77;;
16450;SDS011;12243;42.708;23.310;2023-01-26T07:29:26;17.53;;;9.33;;
16450;SDS011;12243;42.708;23.310;2023-01-26T07:31:54;14.30;;;7.47;;
16450;SDS011;12243;42.708;23.310;2023-01-26T07:34:21;14.97;;;9.90;;
16450;SDS011;12243;42.708;23.310;2023-01-26T07:36:50;15.60;;;8.07;;
16450;SDS011;12243;42.708;23.310;2023-01-26T07:39:17;23.10;;;12.40;;
16450;SDS011;12243;42.708;23.310;2023-01-26T07:41:44;26.47;;;13.97;;
16450;SDS011;12243;42.708;23.310;2023-01-26T07:44:43;26.47;;;14.17;;
16450;SDS011;12243;42.708;23.310;2023-01-26T07:47:11;21.87;;;9.20;;
16450;SDS011;12243;42.708;23.310;2023-01-26T07:49:39;61.80;;;21.10;;
16450;SDS011;12243;42.708;23.310;2023-01-26T07:52:06;21.77;;;11.67;;
16450;SDS011;12243;42.708;23.310;2023-01-26T07:54:34;16.77;;;10.03;;
16450;SDS011;12243;42.708;23.310;2023-01-26T07:57:01;13.80;;;9.17;;
16450;SDS011;12243;42.708;23.310;2023-01-26T07:59:31;14.57;;;8.67;;
16450;SDS011;12243;42.708;23.310;2023-01-26T08:01:58;13.80;;;9.30;;
16450;SDS011;12243;42.708;23.310;2023-01-26T08:04:26;13.27;;;9.40;;
16450;SDS011;12243;42.708;23.310;2023-01-26T08:06:53;16.77;;;9.10;;
16450;SDS011;12243;42.708;23.310;2023-01-26T08:09:20;16.27;;;11.30;;
16450;SDS011;12243;42.708;23.310;2023-01-26T08:11:47;14.90;;;8.40;;
16450;SDS011;12243;42.708;23.310;2023-01-26T08:14:14;13.03;;;9.20;;
16450;SDS011;12243;42.708;23.310;2023-01-26T08:16:41;32.37;;;15.33;;
16450;SDS011;12243;42.708;23.310;2023-01-26T08:19:09;12.83;;;8.43;;
16450;SDS011;12243;42.708;23.310;2023-01-26T08:21:37;19.80;;;8.70;;
16450;SDS011;12243;42.708;23.310;2023-01-26T08:24:04;10.53;;;7.63;;
16450;SDS011;12243;42.708;23.310;2023-01-26T08:26:32;13.87;;;8.50;;
16450;SDS011;12243;42.708;23.310;2023-01-26T08:28:59;12.93;;;5.27;;
16450;SDS011;12243;42.708;23.310;2023-01-26T08:31:26;6.63;;;5.93;;
16450;SDS011;12243;42.708;23.310;2023-01-26T08:33:53;7.83;;;5.73;;
16450;SDS011;12243;42.708;23.310;2023-01-26T08:36:22;9.83;;;5.00;;
16450;SDS011;12243;42.708;23.310;2023-01-26T08:38:50;10.63;;;5.63;;
16450;SDS011;12243;42.708;23.310;2023-01-26T08:41:17;17.43;;;9.03;;
16450;SDS011;12243;42.708;23.310;2023-01-26T08:43:44;8.97;;;5.87;;
16450;SDS011;12243;42.708;23.310;2023-01-26T08:46:11;13.33;;;6.33;;
16450;SDS011;12243;42.708;23.310;2023-01-26T08:48:38;13.67;;;6.80;;
16450;SDS011;12243;42.708;23.310;2023-01-26T08:51:06;8.73;;;6.37;;
16450;SDS011;12243;42.708;23.310;2023-01-26T08:53:34;5.93;;;4.87;;
16450;SDS011;12243;42.708;23.310;2023-01-26T08:56:04;10.07;;;5.10;;
16450;SDS011;12243;42.708;23.310;2023-01-26T08:58:32;5.00;;;4.50;;
16450;SDS011;12243;42.708;23.310;2023-01-26T09:01:02;7.17;;;5.33;;
16450;SDS011;12243;42.708;23.310;2023-01-26T09:03:30;5.27;;;3.90;;
16450;SDS011;12243;42.708;23.310;2023-01-26T09:05:57;4.80;;;3.93;;
16450;SDS011;12243;42.708;23.310;2023-01-26T09:08:25;5.63;;;4.27;;
16450;SDS011;12243;42.708;23.310;2023-01-26T09:10:52;24.33;;;10.13;;
16450;SDS011;12243;42.708;23.310;2023-01-26T09:13:20;16.90;;;8.37;;
16450;SDS011;12243;42.708;23.310;2023-01-26T09:15:47;23.53;;;10.07;;
16450;SDS011;12243;42.708;23.310;2023-01-26T09:18:15;17.90;;;9.13;;
16450;SDS011;12243;42.708;23.310;2023-01-26T09:20:42;26.80;;;12.20;;
16450;SDS011;12243;42.708;23.310;2023-01-26T09:23:09;19.57;;;11.77;;
16450;SDS011;12243;42.708;23.310;2023-01-26T09:25:37;11.00;;;6.50;;
16450;SDS011;12243;42.708;23.310;2023-01-26T09:28:05;14.13;;;8.77;;
16450;SDS011;12243;42.708;23.310;2023-01-26T09:30:33;8.53;;;6.57;;
16450;SDS011;12243;42.708;23.310;2023-01-26T09:33:01;8.57;;;6.40;;
16450;SDS011;12243;42.708;23.310;2023-01-26T09:35:30;4.70;;;4.30;;
16450;SDS011;12243;42.708;23.310;2023-01-26T09:37:57;14.60;;;9.70;;
16450;SDS011;12243;42.708;23.310;2023-01-26T09:40:25;7.40;;;4.10;;
16450;SDS011;12243;42.708;23.310;2023-01-26T09:43:03;4.37;;;3.80;;
16450;SDS011;12243;42.708;23.310;2023-01-26T09:45:45;4.87;;;4.47;;
16450;SDS011;12243;42.708;23.310;2023-01-26T09:48:21;25.93;;;14.60;;
16450;SDS011;12243;42.708;23.310;2023-01-26T09:50:59;7.90;;;5.67;;
16450;SDS011;12243;42.708;23.310;2023-01-26T09:53:34;8.63;;;6.63;;
16450;SDS011;12243;42.708;23.310;2023-01-26T09:56:12;4.63;;;4.23;;
16450;SDS011;12243;42.708;23.310;2023-01-26T09:58:43;8.40;;;4.70;;
16450;SDS011;12243;42.708;23.310;2023-01-26T10:01:16;5.50;;;4.30;;
16450;SDS011;12243;42.708;23.310;2023-01-26T10:03:49;5.97;;;3.90;;
16450;SDS011;12243;42.708;23.310;2023-01-26T10:06:22;8.70;;;5.60;;
16450;SDS011;12243;42.708;23.310;2023-01-26T10:09:06;32.53;;;16.80;;
16450;SDS011;12243;42.708;23.310;2023-01-26T10:11:42;10.20;;;6.90;;
16450;SDS011;12243;42.708;23.310;2023-01-26T10:14:12;4.73;;;4.17;;
16450;SDS011;12243;42.708;23.310;2023-01-26T10:16:45;4.20;;;3.80;;
16450;SDS011;12243;42.708;23.310;2023-01-26T10:19:15;4.63;;;4.23;;
16450;SDS011;12243;42.708;23.310;2023-01-26T10:21:52;6.47;;;3.73;;
16450;SDS011;12243;42.708;23.310;2023-01-26T10:24:22;4.23;;;3.83;;
16450;SDS011;12243;42.708;23.310;2023-01-26T10:26:49;8.50;;;6.43;;
16450;SDS011;12243;42.708;23.310;2023-01-26T10:29:18;10.63;;;6.43;;
16450;SDS011;12243;42.708;23.310;2023-01-26T10:31:48;36.00;;;14.43;;
16450;SDS011;12243;42.708;23.310;2023-01-26T10:34:21;14.53;;;9.10;;
16450;SDS011;12243;42.708;23.310;2023-01-26T10:36:50;4.33;;;3.43;;
16450;SDS011;12243;42.708;23.310;2023-01-26T10:39:24;3.33;;;3.03;;
16450;SDS011;12243;42.708;23.310;2023-01-26T10:41:55;5.30;;;4.40;;
16450;SDS011;12243;42.708;23.310;2023-01-26T10:44:26;4.53;;;4.17;;
16450;SDS011;12243;42.708;23.310;2023-01-26T10:47:05;3.97;;;3.67;;
16450;SDS011;12243;42.708;23.310;2023-01-26T10:49:39;4.93;;;3.50;;
16450;SDS011;12243;42.708;23.310;2023-01-26T10:52:10;4.10;;;3.70;;
16450;SDS011;12243;42.708;23.310;2023-01-26T10:54:41;5.07;;;3.40;;
16450;SDS011;12243;42.708;23.310;2023-01-26T10:57:20;6.20;;;3.70;;
16450;SDS011;12243;42.708;23.310;2023-01-26T10:59:54;5.47;;;3.50;;
16450;SDS011;12243;42.708;23.310;2023-01-26T11:02:26;4.00;;;3.70;;
16450;SDS011;12243;42.708;23.310;2023-01-26T11:05:13;3.23;;;3.00;;
16450;SDS011;12243;42.708;23.310;2023-01-26T11:07:44;7.00;;;3.90;;
16450;SDS011;12243;42.708;23.310;2023-01-26T11:10:16;3.77;;;3.17;;
16450;SDS011;12243;42.708;23.310;2023-01-26T11:12:46;4.77;;;4.27;;
16450;SDS011;12243;42.708;23.310;2023-01-26T11:15:17;10.60;;;7.47;;
16450;SDS011;12243;42.708;23.310;2023-01-26T11:17:53;16.93;;;10.20;;
16450;SDS011;12243;42.708;23.310;2023-01-26T11:20:29;21.97;;;16.00;;
16450;SDS011;12243;42.708;23.310;2023-01-26T11:23:12;5.40;;;4.90;;
16450;SDS011;12243;42.708;23.310;2023-01-26T11:25:52;5.27;;;4.77;;
16450;SDS011;12243;42.708;23.310;2023-01-26T11:28:40;5.77;;;4.10;;
16450;SDS011;12243;42.708;23.310;2023-01-26T11:31:22;3.20;;;3.00;;
16450;SDS011;12243;42.708;23.310;2023-01-26T11:34:04;7.10;;;5.00;;
16450;SDS011;12243;42.708;23.310;2023-01-26T11:36:46;5.17;;;4.57;;
16450;SDS011;12243;42.708;23.310;2023-01-26T11:39:18;5.33;;;4.30;;
16450;SDS011;12243;42.708;23.310;2023-01-26T11:41:57;7.87;;;4.33;;
16450;SDS011;12243;42.708;23.310;2023-01-26T11:47:41;7.20;;;6.00;;
16450;SDS011;12243;42.708;23.310;2023-01-26T11:50:25;4.60;;;4.30;;
16450;SDS011;12243;42.708;23.310;2023-01-26T11:53:03;4.77;;;4.33;;
16450;SDS011;12243;42.708;23.310;2023-01-26T11:55:55;4.77;;;4.37;;
16450;SDS011;12243;42.708;23.310;2023-01-26T11:58:30;4.53;;;3.90;;
16450;SDS011;12243;42.708;23.310;2023-01-26T12:01:00;5.27;;;4.77;;
16450;SDS011;12243;42.708;23.310;2023-01-26T12:03:33;4.63;;;4.23;;
16450;SDS011;12243;42.708;23.310;2023-01-26T12:06:07;4.80;;;4.40;;
16450;SDS011;12243;42.708;23.310;2023-01-26T12:08:42;3.70;;;3.40;;
16450;SDS011;12243;42.708;23.310;2023-01-26T12:11:13;4.40;;;3.57;;
16450;SDS011;12243;42.708;23.310;2023-01-26T12:13:50;4.23;;;3.70;;
16450;SDS011;12243;42.708;23.310;2023-01-26T12:16:26;5.13;;;4.63;;
16450;SDS011;12243;42.708;23.310;2023-01-26T12:19:04;4.13;;;3.80;;
16450;SDS011;12243;42.708;23.310;2023-01-26T12:21:42;5.00;;;4.20;;
16450;SDS011;12243;42.708;23.310;2023-01-26T12:24:11;7.40;;;5.83;;
16450;SDS011;12243;42.708;23.310;2023-01-26T12:26:46;5.73;;;4.93;;
16450;SDS011;12243;42.708;23.310;2023-01-26T12:29:18;5.77;;;4.77;;
16450;SDS011;12243;42.708;23.310;2023-01-26T12:31:51;7.07;;;4.87;;
16450;SDS011;12243;42.708;23.310;2023-01-26T12:34:24;4.43;;;4.03;;
16450;SDS011;12243;42.708;23.310;2023-01-26T12:36:57;4.27;;;3.90;;
16450;SDS011;12243;42.708;23.310;2023-01-26T12:39:41;5.60;;;4.43;;
16450;SDS011;12243;42.708;23.310;2023-01-26T12:42:16;4.53;;;3.80;;
16450;SDS011;12243;42.708;23.310;2023-01-26T12:44:50;4.40;;;4.03;;
16450;SDS011;12243;42.708;23.310;2023-01-26T12:47:21;5.07;;;4.47;;
16450;SDS011;12243;42.708;23.310;2023-01-26T12:49:55;5.60;;;4.80;;
16450;SDS011;12243;42.708;23.310;2023-01-26T12:52:27;4.43;;;4.13;;
16450;SDS011;12243;42.708;23.310;2023-01-26T12:55:02;4.17;;;3.77;;
16450;SDS011;12243;42.708;23.310;2023-01-26T12:57:37;5.77;;;4.27;;
16450;SDS011;12243;42.708;23.310;2023-01-26T13:00:20;14.40;;;8.10;;
16450;SDS011;12243;42.708;23.310;2023-01-26T13:02:50;13.03;;;8.27;;
16450;SDS011;12243;42.708;23.310;2023-01-26T13:05:25;5.53;;;4.87;;
16450;SDS011;12243;42.708;23.310;2023-01-26T13:07:55;4.80;;;4.30;;
16450;SDS011;12243;42.708;23.310;2023-01-26T13:13:28;7.67;;;5.67;;
16450;SDS011;12243;42.708;23.310;2023-01-26T13:16:11;8.50;;;5.00;;
16450;SDS011;12243;42.708;23.310;2023-01-26T13:18:57;20.93;;;11.13;;
16450;SDS011;12243;42.708;23.310;2023-01-26T13:21:27;8.30;;;7.27;;
16450;SDS011;12243;42.708;23.310;2023-01-26T13:27:27;13.43;;;7.47;;
16450;SDS011;12243;42.708;23.310;2023-01-26T13:29:56;6.10;;;5.50;;
16450;SDS011;12243;42.708;23.310;2023-01-26T13:35:29;7.37;;;6.17;;
16450;SDS011;12243;42.708;23.310;2023-01-26T13:37:59;8.20;;;6.83;;
16450;SDS011;12243;42.708;23.310;2023-01-26T13:40:37;9.80;;;7.13;;
16450;SDS011;12243;42.708;23.310;2023-01-26T13:43:10;9.30;;;6.73;;
16450;SDS011;12243;42.708;23.310;2023-01-26T13:45:44;8.63;;;7.23;;
16450;SDS011;12243;42.708;23.310;2023-01-26T13:48:22;9.20;;;7.47;;
16450;SDS011;12243;42.708;23.310;2023-01-26T13:50:58;10.60;;;7.40;;
16450;SDS011;12243;42.708;23.310;2023-01-26T13:53:30;8.03;;;7.13;;
16450;SDS011;12243;42.708;23.310;2023-01-26T13:56:02;10.07;;;8.30;;
16450;SDS011;12243;42.708;23.310;2023-01-26T13:58:31;15.67;;;10.00;;
16450;SDS011;12243;42.708;23.310;2023-01-26T14:01:00;11.33;;;7.67;;
16450;SDS011;12243;42.708;23.310;2023-01-26T14:03:28;12.10;;;9.30;;
16450;SDS011;12243;42.708;23.310;2023-01-26T14:05:56;9.93;;;6.93;;
16450;SDS011;12243;42.708;23.310;2023-01-26T14:08:27;8.07;;;6.47;;
16450;SDS011;12243;42.708;23.310;2023-01-26T14:10:57;7.53;;;5.73;;
16450;SDS011;12243;42.708;23.310;2023-01-26T14:13:30;7.40;;;6.30;;
16450;SDS011;12243;42.708;23.310;2023-01-26T14:15:59;10.60;;;6.80;;
16450;SDS011;12243;42.708;23.310;2023-01-26T14:18:27;8.67;;;6.73;;
16450;SDS011;12243;42.708;23.310;2023-01-26T14:20:59;7.30;;;6.50;;
16450;SDS011;12243;42.708;23.310;2023-01-26T14:23:29;27.30;;;13.60;;
16450;SDS011;12243;42.708;23.310;2023-01-26T14:26:00;19.83;;;12.23;;
16450;SDS011;12243;42.708;23.310;2023-01-26T14:28:30;15.80;;;9.90;;
16450;SDS011;12243;42.708;23.310;2023-01-26T14:31:01;17.80;;;13.37;;
16450;SDS011;12243;42.708;23.310;2023-01-26T14:33:31;15.03;;;12.83;;
16450;SDS011;12243;42.708;23.310;2023-01-26T14:35:59;10.63;;;9.53;;
16450;SDS011;12243;42.708;23.310;2023-01-26T14:38:27;16.03;;;11.90;;
16450;SDS011;12243;42.708;23.310;2023-01-26T14:40:57;8.90;;;8.00;;
16450;SDS011;12243;42.708;23.310;2023-01-26T14:43:27;9.70;;;8.43;;
16450;SDS011;12243;42.708;23.310;2023-01-26T14:45:56;5.83;;;5.23;;
16450;SDS011;12243;42.708;23.310;2023-01-26T14:48:30;12.77;;;8.10;;
16450;SDS011;12243;42.708;23.310;2023-01-26T14:51:00;10.30;;;7.00;;
16450;SDS011;12243;42.708;23.310;2023-01-26T14:53:32;16.73;;;10.13;;
16450;SDS011;12243;42.708;23.310;2023-01-26T14:55:59;7.53;;;5.97;;
16450;SDS011;12243;42.708;23.310;2023-01-26T14:58:27;50.23;;;16.83;;
16450;SDS011;12243;42.708;23.310;2023-01-26T15:00:58;9.17;;;6.73;;
16450;SDS011;12243;42.708;23.310;2023-01-26T15:03:27;8.03;;;6.30;;
16450;SDS011;12243;42.708;23.310;2023-01-26T15:06:02;12.60;;;8.03;;
16450;SDS011;12243;42.708;23.310;2023-01-26T15:08:31;10.27;;;8.27;;
16450;SDS011;12243;42.708;23.310;2023-01-26T15:11:00;16.33;;;9.70;;